Terminal Aerodrome Forecast
Issued by NWS

Home | Current Version | Previous Version | Text Only | Print | Product List | Glossary On
Versions: 1 2 3 4 5 6 7 8 9 10 11 12 13 14
000
FTAK31 PANC 301748
TAFATK
TAF
PATK 301748Z 3018/3118 19008KT P6SM -SHRA SCT030 OVC090
      TEMPO 3018/3021 BKN030
     FM302100 20010KT P6SM BKN070
     FM310800 19008KT P6SM -SHRA BKN035 OVC070=

USA.gov is the U.S. government's official web portal to all federal, state and local government web resources and services.